KSDM/SDM METAR and TAF weather

Enter ICAO airport designator
Station Type Date Time Source
KSDM METAR 2019/08/25 19:53 UTC NOAA

KSDM 251953Z 27010G16KT 10SM CLR 32/12 A2995 RMK AO2 SLP134 T03170117


Station Type Date Time Source
KSDM Decoded METAR 2019/08/25 19:53 UTC NOAA

Station name not available
Aug 25, 2019 - 03:53 PM EDT / 2019.08.25 1953 UTC
Wind: from the W (270 degrees) at 12 MPH (10 KT) gusting to 18 MPH (16 KT):0
Visibility: 10 mile(s):0
Sky conditions: clear
Temperature: 89.1 F (31.7 C)
Dew Point: 53.1 F (11.7 C)
Relative Humidity: 29%
Pressure (altimeter): 29.95 in. Hg (1014 hPa)
ob: KSDM 251953Z 27010G16KT 10SM CLR 32/12 A2995 RMK AO2 SLP134 T03170117
cycle: 20

Station Type Date Time Source
KSDM TAF UTC NOAA

Error!

Example: see airport list